createdAt,value
2023-04-16T00:00:17.915Z,21.58
2023-04-16T00:02:44.853Z,20.52
2023-04-16T00:05:15.405Z,20.85
2023-04-16T00:07:43.356Z,19.60
2023-04-16T00:10:12.892Z,19.35
2023-04-16T00:12:42.813Z,19.75
2023-04-16T00:15:17.230Z,20.38
2023-04-16T00:17:53.630Z,20.38
2023-04-16T00:20:21.323Z,21.08
2023-04-16T00:22:48.291Z,19.90
2023-04-16T00:25:18.613Z,18.50
2023-04-16T00:27:45.952Z,20.73
2023-04-16T00:30:13.737Z,19.05
2023-04-16T00:32:42.135Z,18.70
2023-04-16T00:35:09.408Z,19.27
2023-04-16T00:37:45.340Z,18.48
2023-04-16T00:40:12.561Z,18.17
2023-04-16T00:42:40.773Z,17.75
2023-04-16T00:45:16.520Z,18.77
2023-04-16T00:47:43.864Z,18.55
2023-04-16T00:50:16.694Z,19.30
2023-04-16T00:52:51.046Z,20.05
2023-04-16T00:55:19.122Z,20.25
2023-04-16T00:57:46.268Z,20.52
2023-04-16T01:00:15.089Z,19.70
2023-04-16T01:02:42.366Z,20.73
2023-04-16T01:05:09.824Z,21.77
2023-04-16T01:07:42.281Z,20.80
2023-04-16T01:10:14.731Z,21.35
2023-04-16T01:12:44.823Z,21.35
2023-04-16T01:15:11.943Z,18.65
2023-04-16T01:17:39.135Z,19.88
2023-04-16T01:20:07.005Z,18.35
2023-04-16T01:22:33.953Z,18.60
2023-04-16T01:25:01.029Z,20.65
2023-04-16T01:27:27.983Z,19.45
2023-04-16T01:29:56.475Z,22.27
2023-04-16T01:32:26.571Z,22.17
2023-04-16T01:34:58.861Z,21.58
2023-04-16T01:37:27.255Z,23.00
2023-04-16T01:40:00.884Z,24.00
2023-04-16T01:42:34.764Z,23.40
2023-04-16T01:45:06.291Z,22.83
2023-04-16T01:47:33.553Z,23.63
2023-04-16T01:50:01.757Z,23.63
2023-04-16T01:52:28.658Z,23.60
2023-04-16T01:54:55.479Z,23.08
2023-04-16T01:57:22.244Z,21.98
2023-04-16T01:59:49.189Z,24.45
2023-04-16T02:02:17.139Z,24.33
2023-04-16T02:04:45.586Z,25.30
2023-04-16T02:07:13.376Z,25.42
2023-04-16T02:09:42.814Z,25.25
2023-04-16T02:12:19.217Z,23.50
2023-04-16T02:14:46.357Z,24.67
2023-04-16T02:17:13.475Z,25.23
2023-04-16T02:19:41.036Z,24.38
2023-04-16T02:22:08.514Z,25.60
2023-04-16T02:27:20.256Z,25.23
2023-04-16T02:29:58.293Z,24.23
2023-04-16T02:32:27.059Z,25.77
2023-04-16T02:35:01.882Z,24.90
2023-04-16T02:37:31.388Z,24.90
2023-04-16T02:40:24.472Z,24.30
2023-04-16T02:42:51.942Z,25.85
2023-04-16T02:45:33.758Z,25.58
2023-04-16T02:48:01.062Z,24.45
2023-04-16T02:50:28.293Z,26.88
2023-04-16T02:52:55.642Z,27.35
2023-04-16T02:55:23.940Z,27.15
2023-04-16T02:57:55.243Z,26.85
2023-04-16T03:00:24.725Z,27.88
2023-04-16T03:03:08.612Z,28.48
2023-04-16T03:06:14.104Z,28.98
2023-04-16T03:08:47.855Z,30.30
2023-04-16T03:11:31.757Z,29.60
2023-04-16T03:14:04.711Z,31.83
2023-04-16T03:17:06.947Z,30.52
2023-04-16T03:19:35.025Z,31.63
2023-04-16T03:22:11.185Z,29.67
2023-04-16T03:24:38.506Z,29.90
2023-04-16T03:27:06.296Z,27.75
2023-04-16T03:29:34.256Z,26.85
2023-04-16T03:32:01.203Z,27.65
2023-04-16T03:34:28.063Z,27.65
2023-04-16T03:37:03.030Z,27.67
2023-04-16T03:39:30.134Z,27.15
2023-04-16T03:41:57.004Z,26.60
2023-04-16T03:44:25.383Z,26.25
2023-04-16T03:46:53.180Z,27.00
2023-04-16T03:49:23.035Z,26.23
2023-04-16T03:51:52.426Z,24.75
2023-04-16T03:54:22.073Z,27.08
2023-04-16T03:56:52.690Z,25.83
2023-04-16T03:59:19.908Z,25.33
2023-04-16T04:01:50.052Z,25.23
2023-04-16T04:04:38.483Z,25.65
2023-04-16T04:07:06.188Z,26.25
2023-04-16T04:09:34.203Z,26.80
2023-04-16T04:14:56.038Z,24.42
2023-04-16T04:17:23.176Z,26.20
2023-04-16T04:20:00.480Z,26.20
2023-04-16T04:22:29.419Z,26.83
2023-04-16T04:24:56.211Z,28.15
2023-04-16T04:27:23.428Z,28.75
2023-04-16T04:29:50.701Z,31.00
2023-04-16T04:32:17.574Z,30.40
2023-04-16T04:34:44.433Z,33.92
2023-04-16T04:37:11.371Z,31.15
2023-04-16T04:39:38.234Z,32.55
2023-04-16T04:42:05.046Z,34.40
2023-04-16T04:44:33.872Z,33.63
2023-04-16T04:47:01.200Z,35.60
2023-04-16T04:52:08.840Z,34.00
2023-04-16T04:54:35.989Z,34.28
2023-04-16T04:57:02.839Z,34.42
2023-04-16T04:59:30.343Z,35.25
2023-04-16T05:01:58.376Z,35.92
2023-04-16T05:04:26.104Z,33.78
2023-04-16T05:06:52.984Z,34.55
2023-04-16T05:09:28.770Z,34.67
2023-04-16T05:11:56.031Z,36.83
2023-04-16T05:14:23.103Z,35.17
2023-04-16T05:16:49.977Z,35.50
2023-04-16T05:19:17.709Z,36.45
2023-04-16T05:21:44.939Z,34.85
2023-04-16T05:24:13.615Z,33.85
2023-04-16T05:26:41.725Z,32.60
2023-04-16T05:29:08.911Z,34.17
2023-04-16T05:31:36.279Z,35.22
2023-04-16T05:34:03.249Z,34.35
2023-04-16T05:36:30.414Z,35.33
2023-04-16T05:38:57.219Z,34.83
2023-04-16T05:41:24.418Z,34.05
2023-04-16T05:43:51.249Z,36.00
2023-04-16T05:46:18.245Z,35.53
2023-04-16T05:48:45.457Z,36.47
2023-04-16T05:51:12.255Z,36.28
2023-04-16T05:53:39.131Z,37.28
2023-04-16T05:56:06.781Z,37.90
2023-04-16T05:58:33.849Z,36.47
2023-04-16T06:01:01.302Z,36.47
2023-04-16T06:03:28.615Z,37.55
2023-04-16T06:05:55.624Z,37.22
2023-04-16T06:08:22.697Z,36.75
2023-04-16T06:10:50.259Z,35.50
2023-04-16T06:13:17.056Z,35.67
2023-04-16T06:15:44.049Z,35.00
2023-04-16T06:18:11.381Z,34.90
2023-04-16T06:20:38.258Z,33.33
2023-04-16T06:23:05.298Z,35.42
2023-04-16T06:25:32.175Z,33.53
2023-04-16T06:27:59.426Z,35.17
2023-04-16T06:30:26.637Z,36.72
2023-04-16T06:32:53.858Z,33.83
2023-04-16T06:35:21.296Z,36.10
2023-04-16T06:37:48.715Z,34.17
2023-04-16T06:40:15.681Z,34.05
2023-04-16T06:42:45.669Z,32.90
2023-04-16T06:45:13.368Z,34.50
2023-04-16T06:47:41.576Z,34.53
2023-04-16T06:50:11.560Z,32.88
2023-04-16T06:52:39.963Z,33.35
2023-04-16T06:55:10.057Z,30.38
2023-04-16T06:57:37.579Z,32.13
2023-04-16T07:00:07.865Z,29.88
2023-04-16T07:02:35.425Z,30.10
2023-04-16T07:05:02.827Z,31.85
2023-04-16T07:07:30.680Z,32.22
2023-04-16T07:09:57.888Z,30.85
2023-04-16T07:12:24.853Z,30.50
2023-04-16T07:14:52.022Z,30.88
2023-04-16T07:17:19.964Z,30.67
2023-04-16T07:19:47.420Z,28.05
2023-04-16T07:22:14.455Z,27.92
2023-04-16T07:24:41.706Z,27.52
2023-04-16T07:27:08.708Z,28.52
2023-04-16T07:29:36.102Z,27.17
2023-04-16T07:32:03.079Z,25.50
2023-04-16T07:34:30.106Z,25.15
2023-04-16T07:36:57.244Z,24.10
2023-04-16T07:39:24.639Z,24.52
2023-04-16T07:41:51.953Z,24.95
2023-04-16T07:44:18.821Z,28.83
2023-04-16T07:46:47.642Z,28.70
2023-04-16T07:49:15.501Z,25.83
2023-04-16T07:51:44.429Z,25.10
2023-04-16T07:54:11.770Z,26.55
2023-04-16T07:56:40.008Z,28.05
2023-04-16T07:59:21.206Z,26.08
2023-04-16T08:04:23.147Z,23.33
2023-04-16T08:06:55.963Z,22.92
2023-04-16T08:09:28.788Z,22.13
2023-04-16T08:11:56.014Z,22.58
2023-04-16T08:14:23.813Z,23.40
2023-04-16T08:16:51.421Z,23.63
2023-04-16T08:19:22.552Z,22.30
2023-04-16T08:21:50.620Z,22.08
2023-04-16T08:24:17.674Z,23.92
2023-04-16T08:26:45.139Z,25.13
2023-04-16T08:29:12.515Z,24.30
2023-04-16T08:31:39.885Z,24.50
2023-04-16T08:34:06.799Z,23.27
2023-04-16T08:36:33.659Z,25.90
2023-04-16T08:39:00.556Z,25.15
2023-04-16T08:41:30.762Z,26.75
2023-04-16T08:46:57.452Z,25.73
2023-04-16T08:49:25.579Z,24.75
2023-04-16T08:51:55.726Z,24.17
2023-04-16T08:54:39.203Z,26.40
2023-04-16T08:57:07.607Z,30.85
2023-04-16T08:59:36.313Z,33.63
2023-04-16T09:02:03.549Z,31.42
2023-04-16T09:04:31.975Z,32.88
2023-04-16T09:06:59.243Z,33.00
2023-04-16T09:09:27.368Z,33.15
2023-04-16T09:11:55.654Z,35.03
2023-04-16T09:14:22.852Z,34.97
2023-04-16T09:16:54.426Z,38.10
2023-04-16T09:19:22.792Z,38.33
2023-04-16T09:21:50.249Z,40.35
2023-04-16T09:24:17.099Z,42.63
2023-04-16T09:26:44.691Z,43.72
2023-04-16T09:29:11.848Z,43.83
2023-04-16T09:31:40.991Z,43.33
2023-04-16T09:34:10.553Z,42.50
2023-04-16T09:36:37.564Z,42.88
2023-04-16T09:39:06.602Z,44.28
2023-04-16T09:41:36.388Z,42.92
2023-04-16T09:44:05.395Z,42.55
2023-04-16T09:46:36.382Z,43.63
2023-04-16T09:49:11.202Z,41.30
2023-04-16T09:51:43.648Z,40.88
2023-04-16T09:54:11.822Z,41.95
2023-04-16T09:56:49.466Z,42.53
2023-04-16T09:59:20.568Z,44.78
2023-04-16T10:02:15.852Z,41.30
2023-04-16T10:04:53.658Z,42.47
2023-04-16T10:07:23.779Z,41.85
2023-04-16T10:09:53.084Z,39.60
2023-04-16T10:12:20.708Z,40.10
2023-04-16T10:14:50.086Z,40.53
2023-04-16T10:17:18.016Z,42.08
2023-04-16T10:19:48.539Z,41.80
2023-04-16T10:22:16.598Z,41.28
2023-04-16T10:24:44.692Z,41.03
2023-04-16T10:27:12.808Z,44.42
2023-04-16T10:32:31.242Z,43.60
2023-04-16T10:35:00.199Z,42.38
2023-04-16T10:37:35.940Z,44.10
2023-04-16T10:40:29.315Z,43.83
2023-04-16T10:43:02.028Z,45.13
2023-04-16T10:45:37.863Z,44.60
2023-04-16T10:48:07.136Z,41.28
2023-04-16T10:50:41.700Z,43.78
2023-04-16T10:53:23.186Z,41.90
2023-04-16T10:56:12.361Z,40.67
2023-04-16T10:58:39.457Z,39.58
2023-04-16T11:01:14.588Z,39.83
2023-04-16T11:03:43.729Z,36.85
2023-04-16T11:06:17.113Z,38.30
2023-04-16T11:08:54.663Z,34.50
2023-04-16T11:11:23.019Z,34.72
2023-04-16T11:13:50.956Z,34.08
2023-04-16T11:16:17.852Z,32.15
2023-04-16T11:18:51.302Z,35.58
2023-04-16T11:21:19.637Z,35.08
2023-04-16T11:23:51.411Z,33.55
2023-04-16T11:26:26.927Z,34.97
2023-04-16T11:28:56.399Z,32.25
2023-04-16T11:31:35.779Z,34.67
2023-04-16T11:34:04.102Z,33.22
2023-04-16T11:36:46.501Z,31.95
2023-04-16T11:39:13.419Z,33.17
2023-04-16T11:41:47.845Z,32.30
2023-04-16T11:44:21.130Z,31.90
2023-04-16T11:46:48.664Z,31.80
2023-04-16T11:49:17.898Z,32.53
2023-04-16T11:51:58.128Z,32.65
2023-04-16T11:54:26.294Z,31.75
2023-04-16T11:56:55.500Z,33.67
2023-04-16T11:59:23.721Z,33.40
2023-04-16T12:01:55.925Z,34.15
2023-04-16T12:04:29.140Z,33.90
2023-04-16T12:07:14.777Z,34.28
2023-04-16T12:09:44.539Z,35.78
2023-04-16T12:12:32.408Z,32.90
2023-04-16T12:15:04.908Z,34.40
2023-04-16T12:17:34.760Z,34.17
2023-04-16T12:20:06.645Z,33.33
2023-04-16T12:25:21.876Z,32.45
2023-04-16T12:27:52.205Z,33.05
2023-04-16T12:30:23.047Z,33.90
2023-04-16T12:32:52.832Z,35.33
2023-04-16T12:35:34.313Z,34.70
2023-04-16T12:38:01.658Z,35.22
2023-04-16T12:40:28.570Z,33.90
2023-04-16T12:42:55.764Z,32.92
2023-04-16T12:45:23.377Z,33.45
2023-04-16T12:47:50.830Z,33.88
2023-04-16T12:50:19.019Z,33.20
2023-04-16T12:52:53.556Z,34.80
2023-04-16T13:00:52.081Z,33.10
2023-04-16T13:08:50.952Z,31.88
2023-04-16T13:14:01.139Z,29.10
2023-04-16T13:30:00.822Z,29.55
2023-04-16T13:32:29.808Z,29.27
2023-04-16T14:04:47.340Z,26.83
2023-04-16T14:07:17.324Z,26.92
2023-04-16T14:09:44.708Z,24.80
2023-04-16T14:12:12.224Z,24.67
2023-04-16T14:14:41.378Z,25.33
2023-04-16T14:17:09.272Z,21.70
2023-04-16T14:19:36.411Z,20.60
2023-04-16T14:24:47.619Z,18.60
2023-04-16T14:27:15.057Z,17.65
2023-04-16T14:29:46.718Z,17.50
2023-04-16T14:32:14.016Z,18.73
2023-04-16T14:34:45.429Z,20.25
2023-04-16T14:37:20.165Z,18.63
2023-04-16T14:39:48.947Z,18.25
2023-04-16T14:42:15.905Z,17.77
2023-04-16T14:44:43.686Z,18.13
2023-04-16T14:47:12.226Z,18.50
2023-04-16T14:49:39.308Z,17.80
2023-04-16T14:52:08.930Z,17.85
2023-04-16T14:54:36.157Z,18.27
2023-04-16T14:57:05.566Z,18.70
2023-04-16T14:59:32.860Z,18.35
2023-04-16T15:02:00.287Z,17.77
2023-04-16T15:04:27.729Z,18.08
2023-04-16T15:06:59.277Z,17.75
2023-04-16T15:09:28.941Z,18.50
2023-04-16T15:11:57.006Z,18.23
2023-04-16T15:14:25.901Z,17.58
2023-04-16T15:16:53.243Z,17.63
2023-04-16T15:19:20.977Z,16.95
2023-04-16T15:21:48.960Z,17.17
2023-04-16T15:24:16.139Z,17.45
2023-04-16T15:26:44.296Z,18.17
2023-04-16T15:29:12.438Z,17.65
2023-04-16T15:31:40.224Z,17.90
2023-04-16T15:34:07.385Z,18.42
2023-04-16T15:36:34.209Z,17.92
2023-04-16T15:39:01.032Z,17.38
2023-04-16T15:41:33.129Z,17.52
2023-04-16T15:44:00.772Z,18.87
2023-04-16T15:46:27.864Z,17.58
2023-04-16T15:48:55.266Z,17.15
2023-04-16T15:51:22.845Z,17.38
2023-04-16T15:53:50.869Z,16.80
2023-04-16T15:56:17.937Z,18.20
2023-04-16T15:58:45.049Z,17.10
2023-04-16T16:01:12.234Z,16.92
2023-04-16T16:03:39.305Z,16.75
2023-04-16T16:06:07.804Z,15.35
2023-04-16T16:08:36.927Z,16.23
2023-04-16T16:11:04.062Z,16.83
2023-04-16T16:13:31.987Z,14.73
2023-04-16T16:15:58.949Z,15.40
2023-04-16T16:18:26.175Z,15.77
2023-04-16T16:21:01.757Z,16.02
2023-04-16T16:23:28.619Z,15.32
2023-04-16T16:25:55.759Z,15.60
2023-04-16T16:28:24.232Z,15.27
2023-04-16T16:30:54.060Z,15.48
2023-04-16T16:33:21.385Z,15.68
2023-04-16T16:35:48.401Z,18.45
2023-04-16T16:38:15.796Z,18.00
2023-04-16T16:40:42.701Z,21.67
2023-04-16T16:43:11.940Z,21.33
2023-04-16T16:45:39.085Z,21.73
2023-04-16T16:48:06.322Z,20.70
2023-04-16T16:50:33.508Z,22.25
2023-04-16T16:53:00.962Z,20.77
2023-04-16T16:55:29.093Z,20.63
2023-04-16T16:57:56.884Z,22.00
2023-04-16T17:00:23.678Z,22.25
2023-04-16T17:02:51.970Z,20.95
2023-04-16T17:05:19.357Z,22.55
2023-04-16T17:07:46.442Z,21.98
2023-04-16T17:10:20.473Z,22.33
2023-04-16T17:12:54.529Z,22.55
2023-04-16T17:15:22.174Z,23.48
2023-04-16T17:17:49.471Z,23.55
2023-04-16T17:20:35.588Z,22.35
2023-04-16T17:23:03.893Z,24.00
2023-04-16T17:25:32.566Z,25.45
2023-04-16T17:28:00.273Z,23.85
2023-04-16T17:30:28.626Z,25.67
2023-04-16T17:32:55.731Z,24.60
2023-04-16T17:35:23.439Z,26.38
2023-04-16T17:37:50.474Z,25.80
2023-04-16T17:40:18.886Z,26.48
2023-04-16T17:42:46.684Z,27.38
2023-04-16T17:45:13.781Z,27.70
2023-04-16T17:47:41.278Z,28.80
2023-04-16T17:50:09.460Z,29.33
2023-04-16T17:52:37.972Z,28.45
2023-04-16T17:55:08.144Z,29.38
2023-04-16T17:57:36.481Z,28.30
2023-04-16T18:00:10.516Z,27.27
2023-04-16T18:02:40.958Z,29.92
2023-04-16T18:05:09.301Z,27.80
2023-04-16T18:07:36.668Z,28.98
2023-04-16T19:04:28.813Z,27.23
2023-04-16T19:06:58.961Z,27.17
2023-04-16T19:09:27.541Z,27.90
2023-04-16T19:11:54.651Z,28.00
2023-04-16T19:14:22.544Z,30.15
2023-04-16T19:16:54.111Z,29.60
2023-04-16T19:19:25.482Z,29.50
2023-04-16T19:21:52.548Z,31.48
2023-04-16T19:24:28.331Z,32.40
2023-04-16T19:34:59.944Z,32.08
2023-04-16T19:37:27.443Z,34.42
2023-04-16T19:39:55.039Z,32.97
2023-04-16T19:42:22.221Z,33.50
2023-04-16T19:44:52.021Z,33.33
2023-04-16T19:47:20.417Z,32.95
2023-04-16T19:49:47.766Z,32.97
2023-04-16T19:52:15.496Z,34.35
2023-04-16T19:54:43.452Z,34.58
2023-04-16T19:57:10.532Z,34.10
2023-04-16T19:59:38.605Z,33.80
2023-04-16T20:02:05.681Z,33.42
2023-04-16T20:04:33.185Z,34.33
2023-04-16T20:07:00.435Z,34.53
2023-04-16T20:09:28.022Z,35.58
2023-04-16T20:12:03.581Z,35.72
2023-04-16T20:14:30.516Z,33.97
2023-04-16T20:16:57.438Z,34.95
2023-04-16T20:19:30.052Z,35.03
2023-04-16T20:21:57.054Z,34.08
2023-04-16T20:24:26.920Z,33.75
2023-04-16T20:26:54.006Z,33.00
2023-04-16T20:29:22.384Z,34.22
2023-04-16T20:31:49.378Z,34.75
2023-04-16T20:34:16.449Z,34.45
2023-04-16T20:36:43.640Z,33.58
2023-04-16T20:39:11.633Z,32.55
2023-04-16T20:41:43.822Z,31.60
2023-04-16T20:44:18.683Z,33.63
2023-04-16T20:46:49.667Z,33.90
2023-04-16T20:49:18.440Z,33.28
2023-04-16T20:51:45.657Z,34.88
2023-04-16T20:54:12.481Z,33.97
2023-04-16T20:56:39.422Z,34.50
2023-04-16T20:59:06.364Z,32.15
2023-04-16T21:01:33.262Z,32.85
2023-04-16T21:04:00.296Z,33.10
2023-04-16T21:06:27.669Z,32.60
2023-04-16T21:08:54.622Z,31.60
2023-04-16T21:11:21.792Z,32.53
2023-04-16T21:13:48.994Z,32.35
2023-04-16T21:16:16.173Z,32.53
2023-04-16T21:18:43.094Z,33.08
2023-04-16T21:21:11.241Z,33.55
2023-04-16T21:23:38.675Z,33.95
2023-04-16T21:26:05.738Z,34.08
2023-04-16T21:28:32.736Z,33.20
2023-04-16T21:31:00.018Z,34.40
2023-04-16T21:33:27.192Z,33.00
2023-04-16T21:35:54.682Z,32.38
2023-04-16T21:38:22.326Z,32.95
2023-04-16T21:40:51.353Z,31.50
2023-04-16T21:43:18.274Z,34.63
2023-04-16T21:45:45.253Z,32.95
2023-04-16T21:48:17.257Z,32.60
2023-04-16T21:50:45.752Z,32.15
2023-04-16T21:53:12.780Z,30.73
2023-04-16T21:55:40.837Z,31.80
2023-04-16T21:58:07.790Z,31.23
2023-04-16T22:00:34.846Z,34.20
2023-04-16T22:03:04.546Z,32.67
2023-04-16T22:05:33.426Z,33.17
2023-04-16T22:08:05.842Z,34.47
2023-04-16T22:10:42.287Z,33.55
2023-04-16T22:13:12.840Z,34.45
2023-04-16T22:15:43.253Z,34.33
2023-04-16T22:18:10.214Z,35.28
2023-04-16T22:20:39.348Z,35.47
2023-04-16T22:23:13.829Z,37.78
2023-04-16T22:25:40.893Z,37.63
2023-04-16T22:28:08.057Z,37.80
2023-04-16T22:30:35.366Z,38.58
2023-04-16T22:33:03.866Z,40.03
2023-04-16T22:35:31.138Z,42.17
2023-04-16T22:37:58.436Z,42.88
2023-04-16T22:40:25.371Z,42.08
2023-04-16T22:42:52.455Z,42.00
2023-04-16T22:45:19.541Z,42.10
2023-04-16T22:47:46.686Z,43.33
2023-04-16T22:50:13.568Z,41.55
2023-04-16T22:52:41.038Z,42.33
2023-04-16T22:55:11.515Z,44.47
2023-04-16T22:57:38.350Z,45.97
2023-04-16T23:00:14.777Z,42.75
2023-04-16T23:02:41.986Z,43.83
2023-04-16T23:05:09.184Z,43.63
2023-04-16T23:07:36.175Z,45.60
2023-04-16T23:10:03.222Z,43.92
2023-04-16T23:12:33.309Z,45.60
2023-04-16T23:15:00.877Z,47.72
2023-04-16T23:17:28.355Z,46.95
2023-04-16T23:19:55.870Z,44.50
2023-04-16T23:22:23.905Z,45.92
2023-04-16T23:24:50.919Z,48.72
2023-04-16T23:27:17.725Z,49.20
2023-04-16T23:29:44.514Z,48.35
2023-04-16T23:32:11.639Z,50.53
2023-04-16T23:34:38.843Z,49.13
2023-04-16T23:37:05.701Z,48.63
2023-04-16T23:39:33.450Z,50.22
2023-04-16T23:42:00.561Z,52.25
2023-04-16T23:44:27.556Z,53.70
2023-04-16T23:46:54.412Z,52.40
2023-04-16T23:49:21.505Z,56.45
2023-04-16T23:51:48.404Z,55.28
2023-04-16T23:54:15.326Z,54.75
2023-04-16T23:56:42.383Z,54.42
2023-04-16T23:59:13.054Z,58.00
